Terminal Aerodrome Forecast
Issued by NWS

Home | Current Version | Previous Version | Text Only | Print | Product List | Glossary On
Versions: 1 2 3 4 5 6 7 8 9 10 11 12 13
000
FTUS42 KTAE 281720
TAFDHN
TAF
KDHN 281720Z 2818/2918 11008KT P6SM VCTS BKN040CB
     FM290300 VRB04KT P6SM SCT250
     FM291500 11008KT P6SM SCT040=

USA.gov is the U.S. government's official web portal to all federal, state and local government web resources and services.